Time;durP1;ratioP1;P1;durP2;ratioP2;P2;SDS_P1;SDS_P2;PMS_P1;PMS_P2;Temp;Humidity;BMP_temperature;BMP_pressure;BME280_temperature;BME280_humidity;BME280_pressure;Samples;Min_cycle;Max_cycle;Signal;HPM_P1;HPM_P2
2022/10/06 06:41:22;;;;;;;1.30;1.20;;;;;;;;;;5018059;27;20499;-66
2022/10/06 06:43:55;;;;;;;1.35;1.20;;;;;;;;;;5065257;28;20091;-67
2022/10/06 06:46:30;;;;;;;1.10;1.00;;;;;;;;;;5050715;28;20136;-66
2022/10/06 06:49:04;;;;;;;2.38;1.00;;;;;;;;;;5049996;28;20469;-67
2022/10/06 06:51:39;;;;;;;1.25;1.15;;;;;;;;;;5049036;28;20045;-66
2022/10/06 06:54:06;;;;;;;1.10;1.05;;;;;;;;;;5050040;28;20056;-65
2022/10/06 06:56:35;;;;;;;1.40;1.30;;;;;;;;;;5050576;28;20103;-66
2022/10/06 08:28:47;;;;;;;13.45;2.25;;;;;;;;;;4986669;28;20789;-63
2022/10/06 08:31:14;;;;;;;8.60;1.85;;;;;;;;;;5007092;28;20446;-66
2022/10/06 08:33:41;;;;;;;10.07;2.15;;;;;;;;;;5010466;28;20057;-63
2022/10/06 08:36:10;;;;;;;9.70;1.75;;;;;;;;;;5010906;28;20104;-63
2022/10/06 08:38:37;;;;;;;8.52;2.25;;;;;;;;;;5009262;28;20041;-63
2022/10/06 08:41:23;;;;;;;7.55;1.65;;;;;;;;;;5010231;28;20042;-64
2022/10/06 08:43:56;;;;;;;8.48;1.85;;;;;;;;;;5010570;28;20068;-63
2022/10/06 08:46:23;;;;;;;7.57;2.03;;;;;;;;;;5010511;28;20042;-63
2022/10/06 08:48:50;;;;;;;9.45;2.50;;;;;;;;;;5010574;28;20038;-63
2022/10/06 08:51:22;;;;;;;7.07;2.55;;;;;;;;;;5010102;28;20042;-63
2022/10/06 08:54:04;;;;;;;6.78;2.00;;;;;;;;;;5010581;28;20034;-62
2022/10/06 08:56:34;;;;;;;8.77;2.45;;;;;;;;;;5011231;28;20478;-63
2022/10/06 08:59:03;;;;;;;9.90;2.40;;;;;;;;;;5010883;28;20089;-63
2022/10/06 09:01:32;;;;;;;10.07;2.30;;;;;;;;;;5010469;28;20049;-63
2022/10/06 09:04:03;;;;;;;10.60;2.33;;;;;;;;;;5010802;28;20046;-63
2022/10/06 09:06:33;;;;;;;6.70;1.92;;;;;;;;;;5010936;28;20046;-60
2022/10/06 09:09:08;;;;;;;8.63;3.28;;;;;;;;;;5010734;28;20038;-60
2022/10/06 09:11:50;;;;;;;8.07;1.80;;;;;;;;;;5010596;28;20494;-61
2022/10/06 09:14:23;;;;;;;6.95;1.77;;;;;;;;;;5009939;28;20069;-61
2022/10/06 09:16:52;;;;;;;3.72;1.17;;;;;;;;;;5009710;28;20383;-61
2022/10/06 09:19:31;;;;;;;8.80;2.28;;;;;;;;;;5010479;28;20042;-60
2022/10/06 09:22:01;;;;;;;7.75;2.47;;;;;;;;;;5010934;28;20096;-62
2022/10/06 09:24:38;;;;;;;9.43;1.80;;;;;;;;;;5009376;28;20061;-60
2022/10/06 09:27:11;;;;;;;;;;;;;;;;;;5010998;28;20128;-60
2022/10/06 09:29:37;;;;;;;10.48;2.40;;;;;;;;;;5010442;28;19922;-62
2022/10/06 09:32:05;;;;;;;8.85;2.03;;;;;;;;;;5010603;28;20042;-59
2022/10/06 09:34:34;;;;;;;4.78;1.27;;;;;;;;;;5011184;28;20064;-59
2022/10/06 09:37:03;;;;;;;4.57;1.45;;;;;;;;;;5011952;28;20104;-59
2022/10/06 09:39:36;;;;;;;4.80;1.38;;;;;;;;;;5001429;28;20057;-59
2022/10/06 09:42:09;;;;;;;5.70;1.57;;;;;;;;;;4997044;28;20454;-59
2022/10/06 09:44:45;;;;;;;6.38;1.77;;;;;;;;;;4998637;28;20318;-59
2022/10/06 09:47:35;;;;;;;6.57;1.80;;;;;;;;;;4998878;28;20042;-59
2022/10/06 09:50:10;;;;;;;7.57;2.10;;;;;;;;;;4997994;28;20054;-59
2022/10/06 09:52:37;;;;;;;8.30;1.73;;;;;;;;;;4998786;28;20042;-59
2022/10/06 09:55:11;;;;;;;6.40;2.03;;;;;;;;;;4998583;28;20097;-59
2022/10/06 09:57:45;;;;;;;5.95;1.70;;;;;;;;;;4997788;28;20442;-59
2022/10/06 10:00:25;;;;;;;5.72;1.85;;;;;;;;;;4998382;28;20046;-59
2022/10/06 10:03:01;;;;;;;7.10;1.50;;;;;;;;;;4996151;28;20129;-59
2022/10/06 10:05:28;;;;;;;6.03;1.70;;;;;;;;;;4995872;28;20050;-59
2022/10/06 10:08:14;;;;;;;10.40;3.42;;;;;;;;;;4996054;28;20491;-59
2022/10/06 10:10:40;;;;;;;7.20;2.25;;;;;;;;;;4996801;28;20045;-59
2022/10/06 10:13:21;;;;;;;9.15;2.50;;;;;;;;;;4979472;28;20046;-59
2022/10/06 10:15:51;;;;;;;4.85;1.30;;;;;;;;;;4997100;28;20046;-59
2022/10/06 10:18:21;;;;;;;4.70;1.30;;;;;;;;;;4997163;28;20057;-59
2022/10/06 10:20:49;;;;;;;6.65;1.75;;;;;;;;;;4998070;28;20439;-59
2022/10/06 10:23:22;;;;;;;6.50;1.70;;;;;;;;;;4997784;28;20046;-59
2022/10/06 10:26:00;;;;;;;7.05;1.98;;;;;;;;;;4997548;28;20057;-59
2022/10/06 10:28:29;;;;;;;5.28;1.70;;;;;;;;;;5001591;28;20089;-59
2022/10/06 10:31:29;;;;;;;5.88;1.83;;;;;;;;;;5000985;28;20038;-59
2022/10/06 10:34:11;;;;;;;5.97;1.92;;;;;;;;;;4997858;28;20065;-59
2022/10/06 10:36:52;;;;;;;5.70;2.17;;;;;;;;;;5000194;28;20047;-59
2022/10/06 10:39:26;;;;;;;7.25;2.03;;;;;;;;;;5000556;28;20538;-59
2022/10/06 10:41:53;;;;;;;6.60;1.80;;;;;;;;;;5000939;28;20057;-60
2022/10/06 10:44:46;;;;;;;9.35;2.20;;;;;;;;;;5000127;28;20057;-59
2022/10/06 10:47:20;;;;;;;4.78;1.40;;;;;;;;;;5000520;28;20453;-59
2022/10/06 10:49:49;;;;;;;7.15;1.60;;;;;;;;;;5000614;28;20042;-59
2022/10/06 10:52:20;;;;;;;5.10;1.50;;;;;;;;;;5000410;28;20053;-59
2022/10/06 10:54:55;;;;;;;5.50;1.52;;;;;;;;;;5001636;28;20113;-59
2022/10/06 10:57:27;;;;;;;6.85;1.55;;;;;;;;;;5000158;28;20046;-59
2022/10/06 11:00:00;;;;;;;9.30;3.33;;;;;;;;;;4999278;28;20049;-59
2022/10/06 11:02:27;;;;;;;4.75;1.58;;;;;;;;;;4995572;28;20046;-59
2022/10/06 11:05:00;;;;;;;5.18;1.52;;;;;;;;;;4995241;28;20042;-59
2022/10/06 11:07:32;;;;;;;4.95;1.40;;;;;;;;;;4995409;28;20085;-59
2022/10/06 11:10:04;;;;;;;4.13;1.20;;;;;;;;;;4995163;28;20046;-59
2022/10/06 11:12:38;;;;;;;7.05;2.05;;;;;;;;;;4995120;28;20035;-59
2022/10/06 11:15:24;;;;;;;6.72;1.85;;;;;;;;;;4995364;28;20447;-60
2022/10/06 11:17:53;;;;;;;6.43;1.60;;;;;;;;;;4994887;28;20125;-59
2022/10/06 11:20:23;;;;;;;5.85;1.60;;;;;;;;;;4995466;28;20060;-59
2022/10/06 11:23:05;;;;;;;6.05;1.98;;;;;;;;;;4993821;28;20093;-59
2022/10/06 11:25:38;;;;;;;5.78;1.67;;;;;;;;;;4995572;28;20398;-59
2022/10/06 11:28:08;;;;;;;9.05;1.48;;;;;;;;;;4995179;28;20454;-59
2022/10/06 11:30:39;;;;;;;7.47;1.75;;;;;;;;;;4995029;28;20051;-59
2022/10/06 11:33:12;;;;;;;3.35;1.10;;;;;;;;;;4994763;28;20411;-59
2022/10/06 11:35:41;;;;;;;2.35;1.33;;;;;;;;;;4994850;28;20502;-59
2022/10/06 11:38:26;;;;;;;7.80;1.70;;;;;;;;;;4993554;28;20462;-60
2022/10/06 11:41:07;;;;;;;6.38;2.10;;;;;;;;;;4994559;28;20050;-60
2022/10/06 11:43:50;;;;;;;8.57;1.80;;;;;;;;;;4994682;28;20050;-60
2022/10/06 11:46:37;;;;;;;3.80;1.40;;;;;;;;;;4995162;28;20053;-60
2022/10/06 11:49:28;;;;;;;3.78;1.50;;;;;;;;;;4995259;28;20573;-60
2022/10/06 11:51:55;;;;;;;6.85;1.52;;;;;;;;;;4994988;28;20487;-60
2022/10/06 11:54:38;;;;;;;6.30;1.70;;;;;;;;;;4994854;28;20522;-59
2022/10/06 11:57:25;;;;;;;6.00;1.52;;;;;;;;;;4994803;28;20038;-60
2022/10/06 12:00:14;;;;;;;3.85;1.33;;;;;;;;;;4994955;28;20042;-59
2022/10/06 12:02:42;;;;;;;6.50;2.35;;;;;;;;;;4994679;28;20057;-59
2022/10/06 12:05:08;;;;;;;8.02;2.17;;;;;;;;;;4994600;28;20047;-59
2022/10/06 12:07:54;;;;;;;3.67;1.55;;;;;;;;;;4993402;28;20101;-59
2022/10/06 12:10:27;;;;;;;5.47;1.67;;;;;;;;;;4977443;28;20057;-67
2022/10/06 12:13:12;;;;;;;6.30;1.20;;;;;;;;;;4995832;28;20122;-60
2022/10/06 12:16:11;;;;;;;5.40;1.30;;;;;;;;;;4995791;28;20450;-60
2022/10/06 12:19:04;;;;;;;4.00;1.20;;;;;;;;;;4995446;28;20514;-60
2022/10/06 12:21:44;;;;;;;4.53;1.40;;;;;;;;;;4994225;28;20458;-60
2022/10/06 12:24:19;;;;;;;4.93;1.52;;;;;;;;;;4995529;28;20054;-59
2022/10/06 12:27:09;;;;;;;3.10;1.23;;;;;;;;;;4994128;28;20077;-59
2022/10/06 12:29:35;;;;;;;4.35;1.65;;;;;;;;;;4994748;28;20050;-60
2022/10/06 12:32:21;;;;;;;4.90;1.10;;;;;;;;;;4992956;28;20042;-61
2022/10/06 12:35:02;;;;;;;6.82;1.80;;;;;;;;;;4993058;28;20046;-62
2022/10/06 12:37:31;;;;;;;9.80;2.30;;;;;;;;;;4994301;28;20133;-61
2022/10/06 12:40:16;;;;;;;3.53;1.33;;;;;;;;;;4994513;28;20387;-62
2022/10/06 12:42:43;;;;;;;6.15;1.42;;;;;;;;;;4993627;28;20050;-61
2022/10/06 12:45:14;;;;;;;4.28;1.52;;;;;;;;;;4995029;28;20050;-61
2022/10/06 12:47:42;;;;;;;7.68;1.83;;;;;;;;;;4993537;28;20050;-61
2022/10/06 12:50:18;;;;;;;6.40;1.70;;;;;;;;;;4994527;28;20042;-61
2022/10/06 12:52:49;;;;;;;5.28;1.30;;;;;;;;;;4993932;28;20042;-60
2022/10/06 12:55:23;;;;;;;6.20;1.45;;;;;;;;;;4994542;28;20038;-59
2022/10/06 12:57:53;;;;;;;6.00;1.55;;;;;;;;;;4994361;28;20057;-60
2022/10/06 13:00:30;;;;;;;3.95;1.30;;;;;;;;;;4994558;28;20038;-60
2022/10/06 13:02:57;;;;;;;5.90;1.27;;;;;;;;;;4994901;28;20078;-60
2022/10/06 13:05:24;;;;;;;6.43;1.75;;;;;;;;;;4993153;28;20105;-60
2022/10/06 13:07:54;;;;;;;5.15;1.65;;;;;;;;;;4994264;28;20042;-60
2022/10/06 13:10:21;;;;;;;5.63;2.08;;;;;;;;;;4994304;28;20038;-61
2022/10/06 13:12:50;;;;;;;4.35;1.35;;;;;;;;;;4994633;28;20088;-62
2022/10/06 13:15:22;;;;;;;8.75;2.50;;;;;;;;;;4997611;28;20089;-61
2022/10/06 13:17:50;;;;;;;5.07;1.75;;;;;;;;;;4998192;28;20050;-61
2022/10/06 13:20:29;;;;;;;4.30;1.50;;;;;;;;;;4998690;28;20053;-61
2022/10/06 13:23:04;;;;;;;5.25;1.60;;;;;;;;;;4997854;28;20053;-61
2022/10/06 13:25:42;;;;;;;5.57;1.63;;;;;;;;;;4998940;28;20042;-61
2022/10/06 13:28:22;;;;;;;6.18;1.60;;;;;;;;;;4998131;28;20506;-61
2022/10/06 13:30:53;;;;;;;6.07;2.05;;;;;;;;;;4998144;28;20038;-61
2022/10/06 13:33:21;;;;;;;5.88;1.55;;;;;;;;;;4998113;28;20080;-61
2022/10/06 13:35:49;;;;;;;4.35;1.35;;;;;;;;;;4997115;28;20521;-61
2022/10/06 13:38:15;;;;;;;8.70;1.77;;;;;;;;;;4996914;28;20114;-61
2022/10/06 13:40:42;;;;;;;6.50;2.00;;;;;;;;;;4997642;28;20075;-61
2022/10/06 13:43:14;;;;;;;4.35;1.55;;;;;;;;;;4997007;28;20050;-61
2022/10/06 13:45:42;;;;;;;4.00;1.80;;;;;;;;;;4996297;28;20046;-61
2022/10/06 13:48:17;;;;;;;5.22;1.20;;;;;;;;;;4995721;28;20038;-60
2022/10/06 13:50:48;;;;;;;6.15;1.63;;;;;;;;;;4995546;28;20042;-61
2022/10/06 13:53:25;;;;;;;3.78;1.10;;;;;;;;;;4997134;28;20038;-62
2022/10/06 13:55:52;;;;;;;3.58;1.20;;;;;;;;;;4996949;28;20100;-61
2022/10/06 13:58:22;;;;;;;4.97;1.58;;;;;;;;;;4995238;28;20053;-61
2022/10/06 14:00:59;;;;;;;5.18;1.20;;;;;;;;;;4995887;28;20052;-61
2022/10/06 14:03:27;;;;;;;2.78;1.00;;;;;;;;;;4995270;28;20064;-65
2022/10/06 14:06:12;;;;;;;5.40;1.52;;;;;;;;;;4996920;28;20042;-65
2022/10/06 14:08:39;;;;;;;3.20;1.20;;;;;;;;;;4995237;28;20054;-65
2022/10/06 14:11:06;;;;;;;3.22;1.10;;;;;;;;;;4996356;28;20062;-65
2022/10/06 14:13:50;;;;;;;3.78;0.93;;;;;;;;;;4996877;28;20038;-66
2022/10/06 14:16:23;;;;;;;6.80;1.67;;;;;;;;;;4996104;28;20077;-66
2022/10/06 14:18:54;;;;;;;3.78;1.13;;;;;;;;;;4996489;28;20050;-66
2022/10/06 14:21:25;;;;;;;4.75;1.60;;;;;;;;;;4997376;28;20050;-64
2022/10/06 14:23:52;;;;;;;4.63;1.35;;;;;;;;;;4995962;28;20046;-62
2022/10/06 14:26:22;;;;;;;3.95;1.45;;;;;;;;;;4997153;28;20113;-61
2022/10/06 14:28:51;;;;;;;6.07;2.05;;;;;;;;;;4996202;28;20042;-60
2022/10/06 14:31:22;;;;;;;5.65;1.38;;;;;;;;;;4996004;28;20097;-61
2022/10/06 14:33:55;;;;;;;4.40;1.45;;;;;;;;;;4995008;28;20499;-62
2022/10/06 14:36:26;;;;;;;4.00;1.70;;;;;;;;;;4995215;28;20046;-62
2022/10/06 14:38:53;;;;;;;3.33;1.30;;;;;;;;;;4996331;28;20042;-60
2022/10/06 14:41:23;;;;;;;6.13;1.33;;;;;;;;;;4994750;28;20046;-61
2022/10/06 14:43:54;;;;;;;3.97;1.65;;;;;;;;;;4995776;28;20042;-61
2022/10/06 14:46:21;;;;;;;6.20;1.35;;;;;;;;;;4997099;28;20101;-59
2022/10/06 14:48:47;;;;;;;4.55;1.42;;;;;;;;;;4998282;28;20069;-61
2022/10/06 14:51:18;;;;;;;4.18;1.38;;;;;;;;;;4997344;28;20113;-63
2022/10/06 14:53:53;;;;;;;4.03;1.20;;;;;;;;;;4994969;28;20089;-61
2022/10/06 14:56:22;;;;;;;3.28;1.10;;;;;;;;;;4996263;28;20574;-61
2022/10/06 14:58:49;;;;;;;8.40;1.30;;;;;;;;;;4995851;28;20050;-61
2022/10/06 15:01:16;;;;;;;5.22;1.40;;;;;;;;;;4995668;28;20069;-61
2022/10/06 15:03:48;;;;;;;7.93;1.42;;;;;;;;;;4996215;28;20101;-61
2022/10/06 15:09:00;;;;;;;4.15;1.27;;;;;;;;;;4995348;28;20483;-66
2022/10/06 15:11:27;;;;;;;2.22;1.02;;;;;;;;;;4995106;28;20046;-65
2022/10/06 15:13:55;;;;;;;10.00;6.13;;;;;;;;;;4994288;28;20105;-67
2022/10/06 15:16:22;;;;;;;4.80;1.75;;;;;;;;;;4995431;28;20045;-65
2022/10/06 15:18:49;;;;;;;4.05;1.17;;;;;;;;;;4995386;28;20499;-66
2022/10/06 15:21:17;;;;;;;4.07;1.33;;;;;;;;;;4995518;28;20458;-64
2022/10/06 15:23:44;;;;;;;4.03;1.20;;;;;;;;;;4995474;28;20100;-65
2022/10/06 15:29:04;;;;;;;3.65;1.63;;;;;;;;;;4995113;28;20061;-65
2022/10/06 15:31:32;;;;;;;3.38;1.48;;;;;;;;;;4994984;28;20038;-66
2022/10/06 15:34:00;;;;;;;5.47;1.88;;;;;;;;;;4995027;28;20446;-65
2022/10/06 15:36:31;;;;;;;8.70;1.42;;;;;;;;;;4994479;28;20096;-65
2022/10/06 15:39:02;;;;;;;5.28;1.42;;;;;;;;;;4994815;28;20085;-67
2022/10/06 15:41:29;;;;;;;5.30;1.60;;;;;;;;;;4994092;28;20060;-64
2022/10/06 15:43:58;;;;;;;4.95;1.50;;;;;;;;;;4994681;28;20096;-65
2022/10/06 15:46:26;;;;;;;6.93;1.48;;;;;;;;;;4994819;28;20038;-66
2022/10/06 15:49:16;;;;;;;4.35;1.30;;;;;;;;;;4995247;28;20066;-65
2022/10/06 15:51:47;;;;;;;5.82;1.40;;;;;;;;;;4990704;28;20038;-66
2022/10/06 15:54:14;;;;;;;2.80;1.30;;;;;;;;;;4994911;28;20050;-64
2022/10/06 15:56:41;;;;;;;6.07;1.60;;;;;;;;;;4994776;28;20046;-65
2022/10/06 15:59:07;;;;;;;5.28;1.60;;;;;;;;;;4994896;28;20097;-65
2022/10/06 16:01:36;;;;;;;5.10;1.70;;;;;;;;;;4994432;28;20042;-65
2022/10/06 16:04:11;;;;;;;7.57;2.15;;;;;;;;;;4994545;28;20066;-65
2022/10/06 16:06:53;;;;;;;5.00;1.45;;;;;;;;;;4994469;28;20097;-64
2022/10/06 16:09:20;;;;;;;5.82;1.45;;;;;;;;;;4994519;28;20042;-65
2022/10/06 16:11:46;;;;;;;4.97;1.48;;;;;;;;;;4994170;28;20437;-64
2022/10/06 16:14:14;;;;;;;3.72;1.10;;;;;;;;;;4994300;28;20043;-65
2022/10/06 16:16:40;;;;;;;3.15;1.40;;;;;;;;;;4994246;28;20046;-65
2022/10/06 16:19:09;;;;;;;4.03;1.40;;;;;;;;;;4994060;28;20043;-65
2022/10/06 16:21:36;;;;;;;4.18;1.27;;;;;;;;;;4995732;28;20383;-63
2022/10/06 16:24:03;;;;;;;5.60;1.45;;;;;;;;;;4996118;28;20081;-64
2022/10/06 16:26:29;;;;;;;6.18;2.08;;;;;;;;;;4993532;28;20051;-64
2022/10/06 16:28:56;;;;;;;3.15;1.70;;;;;;;;;;4995002;28;20039;-65
2022/10/06 16:31:22;;;;;;;6.47;1.60;;;;;;;;;;4994454;28;20038;-64
2022/10/06 16:33:49;;;;;;;5.15;1.40;;;;;;;;;;4994228;28;20049;-65
2022/10/06 16:36:16;;;;;;;6.47;1.98;;;;;;;;;;4994087;28;20042;-65
2022/10/06 16:38:42;;;;;;;6.32;1.55;;;;;;;;;;4992639;28;20053;-64
2022/10/06 16:41:09;;;;;;;5.57;1.65;;;;;;;;;;4993967;28;20462;-63
2022/10/06 16:43:37;;;;;;;6.60;2.70;;;;;;;;;;4993764;28;20046;-63
2022/10/06 16:46:04;;;;;;;6.25;1.90;;;;;;;;;;4994792;28;20046;-64
2022/10/06 16:48:32;;;;;;;6.93;2.25;;;;;;;;;;4994256;28;20691;-64
2022/10/06 16:51:12;;;;;;;8.48;2.53;;;;;;;;;;4999984;28;20049;-63
2022/10/06 16:53:42;;;;;;;9.48;2.30;;;;;;;;;;4999516;28;20046;-62
2022/10/06 16:56:12;;;;;;;5.93;2.55;;;;;;;;;;4999876;28;20093;-63
2022/10/06 16:58:40;;;;;;;6.70;2.20;;;;;;;;;;4999535;28;20044;-63
2022/10/06 17:01:07;;;;;;;8.73;2.45;;;;;;;;;;4999829;28;20360;-63
2022/10/06 17:03:34;;;;;;;5.60;2.80;;;;;;;;;;4998309;28;20048;-64
2022/10/06 17:06:14;;;;;;;6.20;2.15;;;;;;;;;;4996937;28;20495;-63
2022/10/06 17:08:41;;;;;;;4.68;2.08;;;;;;;;;;4996906;28;20046;-64
2022/10/06 17:11:12;;;;;;;8.35;2.85;;;;;;;;;;4998038;28;20093;-64
2022/10/06 17:13:41;;;;;;;8.50;3.70;;;;;;;;;;4998242;28;20097;-65
2022/10/06 17:16:09;;;;;;;9.98;4.93;;;;;;;;;;4998148;28;20406;-63
2022/10/06 17:18:35;;;;;;;6.63;3.17;;;;;;;;;;4998148;28;20070;-64
2022/10/06 17:21:02;;;;;;;6.82;3.13;;;;;;;;;;4996724;28;20050;-64
2022/10/06 17:23:53;;;;;;;4.90;2.90;;;;;;;;;;4996206;28;20070;-64
2022/10/06 17:26:21;;;;;;;9.10;3.40;;;;;;;;;;4997353;28;20042;-65
2022/10/06 17:28:48;;;;;;;5.55;3.63;;;;;;;;;;4997338;28;20043;-65
2022/10/06 17:31:16;;;;;;;5.30;3.30;;;;;;;;;;4997684;28;20038;-64
2022/10/06 17:33:44;;;;;;;10.77;4.40;;;;;;;;;;4997774;28;20073;-60
2022/10/06 17:36:12;;;;;;;8.60;3.10;;;;;;;;;;4998053;28;20068;-63
2022/10/06 17:38:42;;;;;;;7.80;3.53;;;;;;;;;;4997786;28;20439;-62
2022/10/06 17:41:10;;;;;;;9.98;4.15;;;;;;;;;;4997637;28;20045;-62
2022/10/06 17:43:40;;;;;;;7.80;2.92;;;;;;;;;;4997025;28;20526;-62
2022/10/06 17:46:12;;;;;;;10.50;3.75;;;;;;;;;;4996963;28;20038;-62
2022/10/06 17:48:43;;;;;;;12.65;5.53;;;;;;;;;;4997292;28;20044;-61
2022/10/06 17:51:12;;;;;;;24.27;9.68;;;;;;;;;;4995754;28;20432;-61
2022/10/06 17:53:40;;;;;;;9.73;5.38;;;;;;;;;;4995391;28;20038;-61
2022/10/06 17:56:08;;;;;;;8.25;4.65;;;;;;;;;;4995666;28;20097;-61
2022/10/06 17:58:35;;;;;;;9.40;4.20;;;;;;;;;;4995221;28;20493;-61
2022/10/06 18:01:04;;;;;;;9.82;6.13;;;;;;;;;;4996287;28;20046;-61
2022/10/06 18:03:35;;;;;;;10.10;7.05;;;;;;;;;;4996183;28;20403;-61
2022/10/06 18:06:02;;;;;;;12.52;6.50;;;;;;;;;;4996971;28;20092;-61
2022/10/06 18:08:30;;;;;;;11.25;5.97;;;;;;;;;;4996629;28;20054;-61
2022/10/06 18:13:42;;;;;;;11.75;4.57;;;;;;;;;;4997137;28;20038;-63
2022/10/06 18:16:14;;;;;;;12.07;6.72;;;;;;;;;;4996944;28;20042;-63
2022/10/06 18:18:44;;;;;;;15.65;7.10;;;;;;;;;;4997908;28;20042;-65
2022/10/06 18:21:10;;;;;;;27.85;14.05;;;;;;;;;;4997900;28;20046;-63
2022/10/06 18:23:37;;;;;;;14.63;7.55;;;;;;;;;;4999161;28;20038;-64
2022/10/06 18:26:05;;;;;;;22.83;9.60;;;;;;;;;;4998620;28;20054;-64
2022/10/06 18:28:31;;;;;;;14.48;5.97;;;;;;;;;;4996707;28;20042;-64
2022/10/06 18:30:58;;;;;;;10.68;4.03;;;;;;;;;;4996596;28;20060;-64
2022/10/06 18:33:24;;;;;;;11.30;4.38;;;;;;;;;;4996455;28;20042;-62
2022/10/06 18:36:11;;;;;;;8.60;3.55;;;;;;;;;;4996134;28;20125;-63
2022/10/06 18:38:42;;;;;;;11.57;3.67;;;;;;;;;;4996291;28;20038;-64
2022/10/06 18:41:15;;;;;;;7.55;3.38;;;;;;;;;;4995928;28;20061;-62
2022/10/06 18:43:42;;;;;;;11.55;2.83;;;;;;;;;;4996294;28;20409;-62
2022/10/06 18:49:01;;;;;;;5.88;2.53;;;;;;;;;;4995765;28;20054;-63
2022/10/06 18:51:30;;;;;;;11.65;5.15;;;;;;;;;;4995850;28;20561;-63
2022/10/06 18:53:58;;;;;;;15.60;4.75;;;;;;;;;;4994581;28;20038;-63
2022/10/06 18:56:28;;;;;;;8.90;4.30;;;;;;;;;;4995685;28;20038;-63
2022/10/06 18:58:57;;;;;;;8.52;3.97;;;;;;;;;;4995738;28;20046;-63
2022/10/06 19:01:25;;;;;;;6.55;3.42;;;;;;;;;;4995551;28;20053;-64
2022/10/06 19:03:53;;;;;;;8.93;3.50;;;;;;;;;;4995780;28;20487;-64
2022/10/06 19:06:21;;;;;;;8.10;2.97;;;;;;;;;;4995758;28;20410;-64
2022/10/06 19:08:59;;;;;;;11.65;2.95;;;;;;;;;;4995526;28;20069;-64
2022/10/06 19:11:43;;;;;;;12.80;3.28;;;;;;;;;;4994664;28;20042;-64
2022/10/06 19:14:09;;;;;;;;;;;;;;;;;;4996317;28;20104;-62
2022/10/06 19:16:36;;;;;;;7.25;3.47;;;;;;;;;;4995653;28;19926;-64
2022/10/06 19:19:09;;;;;;;9.23;2.85;;;;;;;;;;4995406;28;20042;-64
2022/10/06 19:21:40;;;;;;;4.77;2.80;;;;;;;;;;4995452;28;20045;-64
2022/10/06 19:24:08;;;;;;;11.05;3.92;;;;;;;;;;4978018;28;20307;-65
2022/10/06 19:26:35;;;;;;;7.95;3.03;;;;;;;;;;4995679;28;20046;-64
2022/10/06 19:29:03;;;;;;;9.75;2.33;;;;;;;;;;4995691;28;20049;-64
2022/10/06 19:31:29;;;;;;;10.43;2.95;;;;;;;;;;4994469;28;20050;-63
2022/10/06 19:34:00;;;;;;;6.95;2.53;;;;;;;;;;4995036;28;20038;-64
2022/10/06 19:36:27;;;;;;;9.52;2.90;;;;;;;;;;4995726;28;20095;-64
2022/10/06 19:38:56;;;;;;;11.05;4.07;;;;;;;;;;4995244;28;20553;-63
2022/10/06 19:44:08;;;;;;;13.15;3.85;;;;;;;;;;4995381;28;20403;-64
2022/10/06 19:46:36;;;;;;;6.82;3.40;;;;;;;;;;4995094;28;20093;-63
2022/10/06 19:49:04;;;;;;;10.00;3.90;;;;;;;;;;4995299;28;20046;-63
2022/10/06 19:51:32;;;;;;;9.50;3.97;;;;;;;;;;4993559;28;20483;-62
2022/10/06 19:54:02;;;;;;;8.18;3.70;;;;;;;;;;4995518;28;20092;-62
2022/10/06 19:56:29;;;;;;;11.30;4.03;;;;;;;;;;4994023;28;20478;-61
2022/10/06 19:58:57;;;;;;;7.72;3.60;;;;;;;;;;4993773;28;20105;-61
2022/10/06 20:01:24;;;;;;;11.00;3.95;;;;;;;;;;4993977;28;20038;-61
2022/10/06 20:03:50;;;;;;;10.30;4.00;;;;;;;;;;4994850;28;20055;-61
2022/10/06 20:06:17;;;;;;;9.18;3.95;;;;;;;;;;4994813;28;20502;-60
2022/10/06 20:08:43;;;;;;;15.40;4.95;;;;;;;;;;4994619;28;20053;-60
2022/10/06 20:11:12;;;;;;;11.15;4.32;;;;;;;;;;4993369;28;20133;-61
2022/10/06 20:13:39;;;;;;;11.30;3.45;;;;;;;;;;4993509;28;20042;-61
2022/10/06 20:16:10;;;;;;;10.73;3.17;;;;;;;;;;4994585;28;20050;-60
2022/10/06 20:18:38;;;;;;;7.22;2.92;;;;;;;;;;4994770;28;20421;-61
2022/10/06 20:21:06;;;;;;;5.75;2.45;;;;;;;;;;4994148;28;20050;-60
2022/10/06 20:23:33;;;;;;;5.55;2.28;;;;;;;;;;4993987;28;20046;-61
2022/10/06 20:26:09;;;;;;;5.15;2.53;;;;;;;;;;5010242;23;20034;-67
2022/10/06 20:28:36;;;;;;;4.78;2.28;;;;;;;;;;5014437;28;20046;-67
2022/10/06 20:31:03;;;;;;;4.40;2.13;;;;;;;;;;5014650;28;20070;-67
2022/10/06 20:33:31;;;;;;;8.55;2.72;;;;;;;;;;5013489;28;20087;-67
2022/10/06 20:35:58;;;;;;;6.72;2.50;;;;;;;;;;5013217;28;20490;-67
2022/10/06 20:40:37;;;;;;;4.78;2.47;;;;;;;;;;5013085;28;20096;-68
2022/10/06 20:41:14;;;;;;;6.57;2.42;;;;;;;;;;5014229;28;20038;-67
2022/10/06 20:43:42;;;;;;;8.65;3.53;;;;;;;;;;4996817;28;20104;-67
2022/10/06 20:46:08;;;;;;;9.73;3.17;;;;;;;;;;5014140;28;20042;-68
2022/10/06 20:48:35;;;;;;;9.77;3.50;;;;;;;;;;5014003;28;20038;-68
2022/10/06 20:51:07;;;;;;;11.60;3.70;;;;;;;;;;5014635;28;20041;-68
2022/10/06 20:53:34;;;;;;;13.23;4.38;;;;;;;;;;5015159;28;20056;-65
2022/10/06 20:56:00;;;;;;;7.78;2.63;;;;;;;;;;5014591;28;20092;-65
2022/10/06 20:58:28;;;;;;;7.20;2.95;;;;;;;;;;5013051;28;20045;-65
2022/10/06 21:00:54;;;;;;;9.60;3.65;;;;;;;;;;5014006;28;20042;-65
2022/10/06 21:03:21;;;;;;;7.07;3.22;;;;;;;;;;5013795;28;20490;-65
2022/10/06 21:05:48;;;;;;;9.55;2.92;;;;;;;;;;5012696;28;20494;-66
2022/10/06 21:08:15;;;;;;;8.25;3.53;;;;;;;;;;5014040;28;20046;-66
2022/10/06 21:10:42;;;;;;;6.43;3.28;;;;;;;;;;5013170;28;20038;-66
2022/10/06 21:13:08;;;;;;;5.43;2.58;;;;;;;;;;5014663;28;20073;-66
2022/10/06 21:15:42;;;;;;;6.38;3.45;;;;;;;;;;5013801;28;20046;-66
2022/10/06 21:18:09;;;;;;;10.82;3.25;;;;;;;;;;5014226;28;20042;-66
2022/10/06 21:20:35;;;;;;;9.32;2.60;;;;;;;;;;5013793;28;20045;-66
2022/10/06 21:23:05;;;;;;;8.18;3.40;;;;;;;;;;5014095;28;20449;-66
2022/10/06 21:25:34;;;;;;;9.90;3.50;;;;;;;;;;5014652;28;20077;-66
2022/10/06 21:28:03;;;;;;;6.55;2.80;;;;;;;;;;5012879;28;20065;-66
2022/10/06 21:30:31;;;;;;;6.60;2.33;;;;;;;;;;5012457;28;20042;-64
2022/10/06 21:32:57;;;;;;;6.80;2.78;;;;;;;;;;5013823;28;20096;-65
2022/10/06 21:35:24;;;;;;;11.45;2.67;;;;;;;;;;5016630;28;20108;-69
2022/10/06 21:37:51;;;;;;;10.05;3.30;;;;;;;;;;5017200;28;20100;-69
2022/10/06 21:40:17;;;;;;;6.25;2.67;;;;;;;;;;5017981;28;20494;-67
2022/10/06 21:42:44;;;;;;;6.50;2.55;;;;;;;;;;5017815;28;20490;-67
2022/10/06 21:45:10;;;;;;;6.65;2.20;;;;;;;;;;5017570;28;20445;-67
2022/10/06 21:47:37;;;;;;;9.55;2.80;;;;;;;;;;5017682;28;20076;-67
2022/10/06 21:50:03;;;;;;;5.97;2.88;;;;;;;;;;5016247;28;20046;-66
2022/10/06 21:52:30;;;;;;;10.48;2.42;;;;;;;;;;5016601;28;20148;-65
2022/10/06 21:54:56;;;;;;;5.80;2.08;;;;;;;;;;5016381;28;20108;-65
2022/10/06 21:57:23;;;;;;;7.38;2.55;;;;;;;;;;5018366;28;20051;-68
2022/10/06 21:59:49;;;;;;;4.38;2.42;;;;;;;;;;5015866;28;20042;-69
2022/10/06 22:02:16;;;;;;;6.18;2.33;;;;;;;;;;5000540;28;20502;-69
2022/10/06 22:04:42;;;;;;;5.75;2.63;;;;;;;;;;5017392;28;20042;-68
2022/10/06 22:07:09;;;;;;;6.72;2.67;;;;;;;;;;5018034;28;20042;-66
2022/10/06 22:09:35;;;;;;;7.28;2.67;;;;;;;;;;5015767;28;20116;-65
2022/10/06 22:12:03;;;;;;;7.90;2.60;;;;;;;;;;5016454;28;20122;-67
2022/10/06 22:14:30;;;;;;;7.30;3.13;;;;;;;;;;5016685;28;20064;-67
2022/10/06 22:16:56;;;;;;;7.72;2.83;;;;;;;;;;5016634;28;20390;-69
2022/10/06 22:19:23;;;;;;;8.80;2.78;;;;;;;;;;5016467;28;20084;-65
2022/10/06 22:21:49;;;;;;;6.55;2.60;;;;;;;;;;5016372;28;20054;-65
2022/10/06 22:24:17;;;;;;;11.50;1.98;;;;;;;;;;5016419;28;20068;-65
2022/10/06 22:26:44;;;;;;;9.88;2.20;;;;;;;;;;5014926;28;20049;-66
2022/10/06 22:29:12;;;;;;;7.97;2.45;;;;;;;;;;5016174;28;20084;-68
2022/10/06 22:31:39;;;;;;;7.10;2.10;;;;;;;;;;5017597;28;20379;-70
2022/10/06 22:34:06;;;;;;;9.80;2.42;;;;;;;;;;5016675;28;20494;-70
2022/10/06 22:36:33;;;;;;;6.13;1.98;;;;;;;;;;5015317;28;20611;-69
2022/10/06 22:39:00;;;;;;;5.30;1.88;;;;;;;;;;5015298;28;20077;-69
2022/10/06 22:41:27;;;;;;;5.55;1.75;;;;;;;;;;5017304;28;20038;-69
2022/10/06 22:43:57;;;;;;;7.47;3.00;;;;;;;;;;5017021;28;20058;-69
2022/10/06 22:46:27;;;;;;;6.57;2.30;;;;;;;;;;5017243;28;20542;-69
2022/10/06 22:48:54;;;;;;;5.85;2.28;;;;;;;;;;5017221;28;20097;-69
2022/10/06 22:51:21;;;;;;;8.48;2.35;;;;;;;;;;5017141;28;20076;-68
2022/10/06 22:53:52;;;;;;;5.07;2.25;;;;;;;;;;5016391;28;20091;-69
2022/10/06 22:56:24;;;;;;;7.45;2.40;;;;;;;;;;5018075;28;20057;-70
2022/10/06 22:58:50;;;;;;;10.15;2.78;;;;;;;;;;5017800;28;20038;-69
2022/10/06 23:01:18;;;;;;;5.38;2.25;;;;;;;;;;5017085;28;20121;-69
2022/10/06 23:03:45;;;;;;;9.73;2.70;;;;;;;;;;5018480;28;20076;-69
2022/10/06 23:06:13;;;;;;;6.45;2.92;;;;;;;;;;5019692;28;20104;-69
2022/10/06 23:08:40;;;;;;;5.28;2.40;;;;;;;;;;5018585;28;20157;-69
2022/10/06 23:11:08;;;;;;;5.38;2.40;;;;;;;;;;5019586;28;20375;-69
2022/10/06 23:13:35;;;;;;;6.18;2.20;;;;;;;;;;5019292;28;20096;-69
2022/10/06 23:16:05;;;;;;;7.22;1.90;;;;;;;;;;5019026;28;20100;-70
2022/10/06 23:18:34;;;;;;;8.57;2.10;;;;;;;;;;5017897;28;20052;-69
2022/10/06 23:21:01;;;;;;;5.53;1.92;;;;;;;;;;5018996;28;20069;-68
2022/10/06 23:23:28;;;;;;;5.60;1.92;;;;;;;;;;5018674;28;20462;-68
2022/10/06 23:25:54;;;;;;;7.32;2.25;;;;;;;;;;5017785;28;20399;-67